createdAt,value
2018-07-06T00:00:38.645Z,12.43
2018-07-06T00:03:18.667Z,12.37
2018-07-06T00:05:58.708Z,11.80
2018-07-06T00:08:38.913Z,11.07
2018-07-06T00:11:19.168Z,9.73
2018-07-06T00:13:59.318Z,11.00
2018-07-06T00:16:39.764Z,13.10
2018-07-06T00:19:19.856Z,12.93
2018-07-06T00:21:54.067Z,11.50
2018-07-06T00:24:34.207Z,12.77
2018-07-06T00:27:14.323Z,9.53
2018-07-06T00:29:54.628Z,9.87
2018-07-06T00:32:34.866Z,14.60
2018-07-06T00:35:15.667Z,11.77
2018-07-06T00:37:55.873Z,13.80
2018-07-06T00:40:36.139Z,14.83
2018-07-06T00:43:16.627Z,14.17
2018-07-06T00:45:56.847Z,13.03
2018-07-06T00:48:37.003Z,15.27
2018-07-06T00:51:17.263Z,13.70
2018-07-06T00:53:57.358Z,15.03
2018-07-06T00:56:37.695Z,17.27
2018-07-06T00:59:17.987Z,16.73
2018-07-06T01:01:58.148Z,13.00
2018-07-06T01:04:38.328Z,11.30
2018-07-06T01:07:18.587Z,16.47
2018-07-06T01:09:58.818Z,15.13
2018-07-06T01:12:44.435Z,15.90
2018-07-06T01:15:30.219Z,13.13
2018-07-06T01:18:04.368Z,11.97
2018-07-06T01:20:44.539Z,13.13
2018-07-06T01:23:24.799Z,11.50
2018-07-06T01:26:05.080Z,12.20
2018-07-06T01:28:45.364Z,12.07
2018-07-06T01:31:25.522Z,14.97
2018-07-06T01:34:06.032Z,11.83
2018-07-06T01:36:46.403Z,14.57
2018-07-06T01:39:26.951Z,17.70
2018-07-06T01:42:07.295Z,15.20
2018-07-06T01:44:47.540Z,13.33
2018-07-06T01:47:28.135Z,15.40
2018-07-06T01:50:08.503Z,16.10
2018-07-06T01:52:48.652Z,13.77
2018-07-06T01:55:28.870Z,14.33
2018-07-06T01:58:09.000Z,14.33
2018-07-06T02:00:49.155Z,16.73
2018-07-06T02:03:29.467Z,19.37
2018-07-06T02:06:09.774Z,17.10
2018-07-06T02:08:50.031Z,19.50
2018-07-06T02:11:30.291Z,15.40
2018-07-06T02:14:10.432Z,14.80
2018-07-06T02:16:50.454Z,15.63
2018-07-06T02:19:31.308Z,18.20
2018-07-06T02:22:11.635Z,17.57
2018-07-06T02:24:51.872Z,17.30
2018-07-06T02:27:32.778Z,14.60
2018-07-06T02:30:12.929Z,17.70
2018-07-06T02:32:47.137Z,17.63
2018-07-06T02:35:27.240Z,18.50
2018-07-06T02:38:07.356Z,17.87
2018-07-06T02:40:47.639Z,19.90
2018-07-06T02:43:27.907Z,23.30
2018-07-06T02:46:08.143Z,21.23
2018-07-06T02:48:48.228Z,20.47
2018-07-06T02:51:28.511Z,28.33
2018-07-06T02:54:08.815Z,34.57
2018-07-06T02:56:48.852Z,26.23
2018-07-06T02:59:23.048Z,26.03
2018-07-06T03:02:03.079Z,31.27
2018-07-06T03:04:43.231Z,22.93
2018-07-06T03:07:23.469Z,22.40
2018-07-06T03:10:03.668Z,21.00
2018-07-06T03:12:43.940Z,21.33
2018-07-06T03:15:24.142Z,25.20
2018-07-06T03:18:04.204Z,23.23
2018-07-06T03:20:44.970Z,26.10
2018-07-06T03:23:25.099Z,28.80
2018-07-06T03:26:05.360Z,28.27
2018-07-06T03:28:45.709Z,26.00
2018-07-06T03:31:25.743Z,29.40
2018-07-06T03:34:05.868Z,30.50
2018-07-06T03:36:46.101Z,28.53
2018-07-06T03:39:26.348Z,29.43
2018-07-06T03:42:00.511Z,29.20
2018-07-06T03:44:40.615Z,35.80
2018-07-06T03:47:14.763Z,33.70
2018-07-06T03:49:55.034Z,28.67
2018-07-06T03:52:35.311Z,24.50
2018-07-06T03:55:15.613Z,33.63
2018-07-06T03:57:55.687Z,39.90
2018-07-06T04:00:35.872Z,40.00
2018-07-06T04:03:16.188Z,47.07
2018-07-06T04:05:56.483Z,42.27
2018-07-06T04:08:36.736Z,42.73
2018-07-06T04:11:16.975Z,34.83
2018-07-06T04:13:57.579Z,35.20
2018-07-06T04:16:37.770Z,37.87
2018-07-06T04:19:18.072Z,46.00
2018-07-06T04:21:58.148Z,38.63
2018-07-06T04:24:32.554Z,35.13
2018-07-06T04:27:13.747Z,33.77
2018-07-06T04:29:53.906Z,31.80
2018-07-06T04:32:33.883Z,31.73
2018-07-06T04:35:08.255Z,32.33
2018-07-06T04:37:48.510Z,27.20
2018-07-06T04:40:28.688Z,26.30
2018-07-06T04:43:08.856Z,21.63
2018-07-06T04:45:49.079Z,21.57
2018-07-06T04:48:29.363Z,20.10
2018-07-06T04:51:09.500Z,23.53
2018-07-06T04:53:49.832Z,23.70
2018-07-06T04:56:29.955Z,20.93
2018-07-06T04:59:10.172Z,17.63
2018-07-06T05:01:50.571Z,18.43
2018-07-06T05:04:30.700Z,18.83
2018-07-06T05:07:10.971Z,17.93
2018-07-06T05:09:51.208Z,16.60
2018-07-06T05:12:31.507Z,13.17
2018-07-06T05:15:11.705Z,11.97
2018-07-06T05:17:52.000Z,13.40
2018-07-06T05:20:32.112Z,16.33
2018-07-06T05:23:12.423Z,16.50
2018-07-06T05:25:52.693Z,16.73
2018-07-06T05:28:33.043Z,20.73
2018-07-06T05:31:13.391Z,20.93
2018-07-06T05:33:53.791Z,16.87
2018-07-06T05:36:33.896Z,14.40
2018-07-06T05:39:14.267Z,20.63
2018-07-06T05:41:54.503Z,17.80
2018-07-06T05:44:34.717Z,15.83
2018-07-06T05:47:14.927Z,15.03
2018-07-06T05:49:55.576Z,15.60
2018-07-06T05:52:29.827Z,17.37
2018-07-06T05:55:10.041Z,16.70
2018-07-06T05:57:50.212Z,17.43
2018-07-06T06:00:30.380Z,16.33
2018-07-06T06:03:10.743Z,16.63
2018-07-06T06:05:50.974Z,13.67
2018-07-06T06:08:18.904Z,16.87
2018-07-06T06:10:47.980Z,13.80
2018-07-06T06:13:16.999Z,13.27
2018-07-06T06:15:46.047Z,12.53
2018-07-06T06:18:15.057Z,11.80
2018-07-06T06:20:44.438Z,9.77
2018-07-06T06:23:13.480Z,10.47
2018-07-06T06:25:42.562Z,9.53
2018-07-06T06:28:11.959Z,10.20
2018-07-06T06:30:41.405Z,10.23
2018-07-06T06:33:10.466Z,10.60
2018-07-06T06:35:39.409Z,11.77
2018-07-06T06:38:08.478Z,13.30
2018-07-06T06:40:37.555Z,10.50
2018-07-06T06:43:06.552Z,12.13
2018-07-06T06:45:35.590Z,9.10
2018-07-06T06:48:04.655Z,10.23
2018-07-06T06:50:33.370Z,9.67
2018-07-06T06:53:02.421Z,9.87
2018-07-06T06:55:31.422Z,10.77
2018-07-06T06:58:00.510Z,11.83
2018-07-06T07:00:29.588Z,10.40
2018-07-06T07:02:58.703Z,10.13
2018-07-06T07:05:28.024Z,12.43
2018-07-06T07:07:57.123Z,11.67
2018-07-06T07:10:26.180Z,13.43
2018-07-06T07:12:55.338Z,11.37
2018-07-06T07:15:24.364Z,11.07
2018-07-06T07:17:53.605Z,12.00
2018-07-06T07:20:22.679Z,13.63
2018-07-06T07:22:51.796Z,9.43
2018-07-06T07:25:20.859Z,11.97
2018-07-06T07:27:50.004Z,13.53
2018-07-06T07:30:25.544Z,12.13
2018-07-06T07:32:54.325Z,13.60
2018-07-06T07:35:23.315Z,16.37
2018-07-06T07:37:52.473Z,11.60
2018-07-06T07:40:21.560Z,13.30
2018-07-06T07:42:50.908Z,12.37
2018-07-06T07:45:19.694Z,13.70
2018-07-06T07:47:48.722Z,14.30
2018-07-06T07:50:17.795Z,9.20
2018-07-06T07:52:58.004Z,11.93
2018-07-06T07:55:27.112Z,13.57
2018-07-06T07:57:56.619Z,10.60
2018-07-06T08:00:25.734Z,15.83
2018-07-06T08:02:54.776Z,10.97
2018-07-06T08:05:23.487Z,14.97
2018-07-06T08:07:52.522Z,14.90
2018-07-06T08:10:21.259Z,10.60
2018-07-06T08:12:50.286Z,17.63
2018-07-06T08:15:19.395Z,17.13
2018-07-06T08:17:48.391Z,11.17
2018-07-06T08:20:17.448Z,11.63
2018-07-06T08:22:46.504Z,15.97
2018-07-06T08:25:15.210Z,10.40
2018-07-06T08:27:44.204Z,12.23
2018-07-06T08:30:13.255Z,11.00
2018-07-06T08:32:42.216Z,12.23
2018-07-06T08:35:22.410Z,11.70
2018-07-06T08:38:00.336Z,13.72
2018-07-06T08:40:29.607Z,12.93
2018-07-06T08:43:00.120Z,15.20
2018-07-06T08:45:30.373Z,10.47
2018-07-06T08:47:59.488Z,13.80
2018-07-06T08:50:28.626Z,15.87
2018-07-06T08:52:58.047Z,14.50
2018-07-06T08:55:27.760Z,17.37
2018-07-06T08:57:57.848Z,12.77
2018-07-06T09:00:26.855Z,12.53
2018-07-06T09:02:55.906Z,11.33
2018-07-06T09:05:24.966Z,16.07
2018-07-06T09:07:54.017Z,13.18
2018-07-06T09:10:23.056Z,12.37
2018-07-06T09:12:52.064Z,12.68
2018-07-06T09:15:21.123Z,13.83
2018-07-06T09:17:50.263Z,16.52
2018-07-06T09:20:19.486Z,11.12
2018-07-06T09:22:48.290Z,13.48
2018-07-06T09:25:17.368Z,11.90
2018-07-06T09:27:46.307Z,11.28
2018-07-06T09:30:15.427Z,12.93
2018-07-06T09:32:44.449Z,13.93
2018-07-06T09:35:13.516Z,11.40
2018-07-06T09:37:42.865Z,10.98
2018-07-06T09:40:11.890Z,13.65
2018-07-06T09:42:40.939Z,9.75
2018-07-06T09:45:09.963Z,10.82
2018-07-06T09:47:39.007Z,11.28
2018-07-06T09:50:08.563Z,14.53
2018-07-06T09:52:38.304Z,11.33
2018-07-06T09:55:07.736Z,11.80
2018-07-06T09:57:37.016Z,13.15
2018-07-06T10:00:06.553Z,11.65
2018-07-06T10:02:35.986Z,15.68
2018-07-06T10:05:05.143Z,10.48
2018-07-06T10:07:34.588Z,8.13
2018-07-06T10:10:03.414Z,10.68
2018-07-06T10:12:32.395Z,10.18
2018-07-06T10:15:01.436Z,14.63
2018-07-06T10:17:30.535Z,12.28
2018-07-06T10:19:59.261Z,13.60
2018-07-06T10:22:28.411Z,10.18
2018-07-06T10:24:57.467Z,12.20
2018-07-06T10:27:35.499Z,10.98
2018-07-06T10:30:11.684Z,11.22
2018-07-06T10:32:40.679Z,10.43
2018-07-06T10:35:09.718Z,14.33
2018-07-06T10:37:38.779Z,12.30
2018-07-06T10:40:07.532Z,8.48
2018-07-06T10:42:36.148Z,11.20
2018-07-06T10:45:05.366Z,8.53
2018-07-06T10:47:35.316Z,12.30
2018-07-06T10:50:05.475Z,13.32
2018-07-06T10:52:35.053Z,10.25
2018-07-06T10:55:04.156Z,11.60
2018-07-06T10:57:33.291Z,13.00
2018-07-06T11:00:02.213Z,13.25
2018-07-06T11:02:31.232Z,16.30
2018-07-06T11:05:00.342Z,10.35
2018-07-06T11:07:29.236Z,13.60
2018-07-06T11:09:58.217Z,12.70
2018-07-06T11:12:27.108Z,10.72
2018-07-06T11:14:56.407Z,11.63
2018-07-06T11:17:25.120Z,15.58
2018-07-06T11:19:54.135Z,10.85
2018-07-06T11:22:23.142Z,10.85
2018-07-06T11:24:52.487Z,9.98
2018-07-06T11:27:21.215Z,14.40
2018-07-06T11:29:49.898Z,17.05
2018-07-06T11:32:18.531Z,13.25
2018-07-06T11:34:47.145Z,15.63
2018-07-06T11:37:16.107Z,17.67
2018-07-06T11:39:44.834Z,18.10
2018-07-06T11:42:13.815Z,18.73
2018-07-06T11:44:42.536Z,12.78
2018-07-06T11:47:11.558Z,18.62
2018-07-06T11:49:40.612Z,13.60
2018-07-06T11:52:09.337Z,16.57
2018-07-06T11:54:37.986Z,18.70
2018-07-06T11:57:06.922Z,16.07
2018-07-06T11:59:36.080Z,16.50
2018-07-06T12:02:05.111Z,16.27
2018-07-06T12:04:34.249Z,15.78
2018-07-06T12:07:03.216Z,17.87
2018-07-06T12:09:32.047Z,16.67
2018-07-06T12:12:00.651Z,17.82
2018-07-06T12:14:29.258Z,13.78
2018-07-06T12:16:58.214Z,19.10
2018-07-06T12:19:27.260Z,17.25
2018-07-06T12:21:56.287Z,20.20
2018-07-06T12:24:25.362Z,20.92
2018-07-06T12:26:54.411Z,18.90
2018-07-06T12:29:23.535Z,16.70
2018-07-06T12:31:52.224Z,18.67
2018-07-06T12:34:21.170Z,17.75
2018-07-06T12:36:49.940Z,20.88
2018-07-06T12:39:18.519Z,17.98
2018-07-06T12:41:47.180Z,18.60
2018-07-06T12:44:16.112Z,17.60
2018-07-06T12:46:45.060Z,17.10
2018-07-06T12:49:13.699Z,17.40
2018-07-06T12:51:42.382Z,23.30
2018-07-06T12:54:11.633Z,19.02
2018-07-06T12:56:40.579Z,20.55
2018-07-06T12:59:09.491Z,21.17
2018-07-06T13:01:38.535Z,21.48
2018-07-06T13:04:07.647Z,21.83
2018-07-06T13:06:36.603Z,25.87
2018-07-06T13:09:06.784Z,21.20
2018-07-06T13:11:35.482Z,22.67
2018-07-06T13:14:04.551Z,20.40
2018-07-06T13:16:33.575Z,22.63
2018-07-06T13:19:02.624Z,17.90
2018-07-06T13:21:31.705Z,21.12
2018-07-06T13:24:00.435Z,20.92
2018-07-06T13:26:29.400Z,22.10
2018-07-06T13:28:58.107Z,21.52
2018-07-06T13:31:27.883Z,20.62
2018-07-06T13:33:57.033Z,22.45
2018-07-06T13:36:26.184Z,21.62
2018-07-06T13:38:54.911Z,20.82
2018-07-06T13:41:23.897Z,21.57
2018-07-06T13:43:52.983Z,22.50
2018-07-06T13:46:22.060Z,19.30
2018-07-06T13:48:50.972Z,31.62
2018-07-06T13:51:20.344Z,19.87
2018-07-06T13:53:49.298Z,19.27
2018-07-06T13:56:17.932Z,18.30
2018-07-06T13:58:46.883Z,19.50
2018-07-06T14:01:15.933Z,19.52
2018-07-06T14:03:44.758Z,16.50
2018-07-06T14:06:13.394Z,19.65
2018-07-06T14:08:48.384Z,18.57
2018-07-06T14:11:17.043Z,19.57
2018-07-06T14:13:47.302Z,19.55
2018-07-06T14:16:16.361Z,17.80
2018-07-06T14:18:45.481Z,18.27
2018-07-06T14:21:14.342Z,18.75
2018-07-06T14:23:43.299Z,16.37
2018-07-06T14:26:12.547Z,16.32
2018-07-06T14:28:41.270Z,15.40
2018-07-06T14:31:10.224Z,15.53
2018-07-06T14:33:39.328Z,16.80
2018-07-06T14:36:08.354Z,14.95
2018-07-06T14:38:37.373Z,16.32
2018-07-06T14:41:06.490Z,15.38
2018-07-06T14:43:35.379Z,15.30
2018-07-06T14:46:04.107Z,17.07
2018-07-06T14:48:33.203Z,17.35
2018-07-06T14:51:02.345Z,16.52
2018-07-06T14:53:31.075Z,17.42
2018-07-06T14:56:00.172Z,14.47
2018-07-06T14:58:29.187Z,17.73
2018-07-06T15:00:58.243Z,19.17
2018-07-06T15:03:27.002Z,15.30
2018-07-06T15:05:55.814Z,16.67
2018-07-06T15:08:24.447Z,18.23
2018-07-06T15:10:53.272Z,15.93
2018-07-06T15:13:22.110Z,14.47
2018-07-06T15:15:51.019Z,19.50
2018-07-06T15:18:20.088Z,19.63
2018-07-06T15:20:48.764Z,16.10
2018-07-06T15:23:17.731Z,18.30
2018-07-06T15:25:46.783Z,15.95
2018-07-06T15:28:15.840Z,18.57
2018-07-06T15:30:44.571Z,16.40
2018-07-06T15:33:13.623Z,18.43
2018-07-06T15:35:42.671Z,17.60
2018-07-06T15:38:11.699Z,19.10
2018-07-06T15:40:40.308Z,19.63
2018-07-06T15:43:08.938Z,18.33
2018-07-06T15:45:37.619Z,18.27
2018-07-06T15:48:06.342Z,15.43
2018-07-06T15:50:34.963Z,12.70
2018-07-06T15:53:03.599Z,17.37
2018-07-06T15:55:32.587Z,17.90
2018-07-06T15:58:01.298Z,16.00
2018-07-06T16:00:29.939Z,17.67
2018-07-06T16:02:59.015Z,19.57
2018-07-06T16:05:27.766Z,20.27
2018-07-06T16:07:56.384Z,18.40
2018-07-06T16:10:25.046Z,19.57
2018-07-06T16:12:53.691Z,17.37
2018-07-06T16:15:22.652Z,20.27
2018-07-06T16:17:51.689Z,18.63
2018-07-06T16:20:20.384Z,19.47
2018-07-06T16:22:49.039Z,19.20
2018-07-06T16:25:17.898Z,18.03
2018-07-06T16:27:47.009Z,21.00
2018-07-06T16:30:16.035Z,17.60
2018-07-06T16:32:44.823Z,16.67
2018-07-06T16:35:13.461Z,18.43
2018-07-06T16:37:42.085Z,18.40
2018-07-06T16:40:10.794Z,18.37
2018-07-06T16:42:39.798Z,20.63
2018-07-06T16:45:09.023Z,20.13
2018-07-06T16:47:37.854Z,18.40
2018-07-06T16:50:06.929Z,17.63
2018-07-06T16:52:35.978Z,16.73
2018-07-06T16:55:04.678Z,15.63
2018-07-06T16:57:33.629Z,16.70
2018-07-06T17:00:02.958Z,15.87
2018-07-06T17:02:31.699Z,17.37
2018-07-06T17:05:00.660Z,16.70
2018-07-06T17:07:29.395Z,21.73
2018-07-06T17:09:58.327Z,20.07
2018-07-06T17:12:27.058Z,19.60
2018-07-06T17:14:56.033Z,19.73
2018-07-06T17:17:24.771Z,16.47
2018-07-06T17:19:53.392Z,19.37
2018-07-06T17:22:22.410Z,16.00
2018-07-06T17:24:51.471Z,13.53
2018-07-06T17:27:20.515Z,17.53
2018-07-06T17:29:49.229Z,15.80
2018-07-06T17:32:17.868Z,16.13
2018-07-06T17:34:46.852Z,16.17
2018-07-06T17:37:16.047Z,16.63
2018-07-06T17:39:45.197Z,19.57
2018-07-06T17:42:14.272Z,16.87
2018-07-06T17:44:43.576Z,18.93
2018-07-06T17:47:12.643Z,17.60
2018-07-06T17:49:41.666Z,15.73
2018-07-06T17:52:11.036Z,20.57
2018-07-06T17:54:40.104Z,25.23
2018-07-06T17:57:09.524Z,18.33
2018-07-06T17:59:38.323Z,18.80
2018-07-06T18:02:07.315Z,18.33
2018-07-06T18:04:36.373Z,23.33
2018-07-06T18:07:05.510Z,20.50
2018-07-06T18:09:34.215Z,14.43
2018-07-06T18:12:03.047Z,15.50
2018-07-06T18:14:31.979Z,18.93
2018-07-06T18:17:00.973Z,14.07
2018-07-06T18:19:30.145Z,17.10
2018-07-06T18:21:58.895Z,13.83
2018-07-06T18:24:27.566Z,13.23
2018-07-06T18:26:56.579Z,12.47
2018-07-06T18:29:25.778Z,16.23
2018-07-06T18:31:55.053Z,15.50
2018-07-06T18:34:24.319Z,12.70
2018-07-06T18:36:53.004Z,16.47
2018-07-06T18:39:22.373Z,14.70
2018-07-06T18:41:51.403Z,12.73
2018-07-06T18:44:20.443Z,12.80
2018-07-06T18:46:49.198Z,13.07
2018-07-06T18:49:18.716Z,18.00
2018-07-06T18:51:47.472Z,13.43
2018-07-06T18:54:16.261Z,11.10
2018-07-06T18:56:45.213Z,11.37
2018-07-06T18:59:14.939Z,21.03
2018-07-06T19:01:43.673Z,14.90
2018-07-06T19:04:12.855Z,12.93
2018-07-06T19:06:41.952Z,11.00
2018-07-06T19:09:10.690Z,12.40
2018-07-06T19:11:39.432Z,11.53
2018-07-06T19:14:08.215Z,12.93
2018-07-06T19:16:37.205Z,11.40
2018-07-06T19:19:06.628Z,11.30
2018-07-06T19:21:35.924Z,9.50
2018-07-06T19:24:04.550Z,12.33
2018-07-06T19:26:33.750Z,16.17
2018-07-06T19:29:02.462Z,11.03
2018-07-06T19:31:31.490Z,10.73
2018-07-06T19:34:00.218Z,10.13
2018-07-06T19:36:28.907Z,10.73
2018-07-06T19:38:58.527Z,12.37
2018-07-06T19:41:27.359Z,13.63
2018-07-06T19:43:56.076Z,11.80
2018-07-06T19:46:24.805Z,10.33
2018-07-06T19:48:53.445Z,9.67
2018-07-06T19:51:22.379Z,10.70
2018-07-06T19:53:51.428Z,8.53
2018-07-06T19:56:20.159Z,11.37
2018-07-06T19:58:49.284Z,9.20
2018-07-06T20:01:18.427Z,11.63
2018-07-06T20:03:47.472Z,12.90
2018-07-06T20:06:16.524Z,10.37
2018-07-06T20:08:45.527Z,10.87
2018-07-06T20:11:14.560Z,9.87
2018-07-06T20:13:43.555Z,11.30
2018-07-06T20:16:12.611Z,13.63
2018-07-06T20:18:41.692Z,11.37
2018-07-06T20:21:10.893Z,10.17
2018-07-06T20:23:39.547Z,12.67
2018-07-06T20:26:08.483Z,11.80
2018-07-06T20:28:37.528Z,10.30
2018-07-06T20:31:06.623Z,11.40
2018-07-06T20:33:35.325Z,12.23
2018-07-06T20:36:04.475Z,10.50
2018-07-06T20:38:33.504Z,11.13
2018-07-06T20:41:02.548Z,8.57
2018-07-06T20:43:31.319Z,8.93
2018-07-06T20:45:59.847Z,9.67
2018-07-06T20:48:28.775Z,10.30
2018-07-06T20:50:57.895Z,13.50
2018-07-06T20:53:26.577Z,9.47
2018-07-06T20:55:55.573Z,12.70
2018-07-06T20:58:24.585Z,9.23
2018-07-06T21:00:53.604Z,9.30
2018-07-06T21:03:22.864Z,11.13
2018-07-06T21:05:52.084Z,10.70
2018-07-06T21:08:21.141Z,9.23
2018-07-06T21:10:51.077Z,12.10
2018-07-06T21:13:20.088Z,9.00
2018-07-06T21:15:49.100Z,10.93
2018-07-06T21:18:18.169Z,13.60
2018-07-06T21:20:47.515Z,12.23
2018-07-06T21:23:16.540Z,10.20
2018-07-06T21:25:45.589Z,11.73
2018-07-06T21:28:14.582Z,10.33
2018-07-06T21:30:43.663Z,8.17
2018-07-06T21:33:12.946Z,10.00
2018-07-06T21:35:41.642Z,9.33
2018-07-06T21:38:10.633Z,10.70
2018-07-06T21:40:39.692Z,12.07
2018-07-06T21:43:08.753Z,11.77
2018-07-06T21:45:37.795Z,12.93
2018-07-06T21:48:06.840Z,9.03
2018-07-06T21:50:35.575Z,16.27
2018-07-06T21:53:04.539Z,10.50
2018-07-06T21:55:33.607Z,14.17
2018-07-06T21:58:02.659Z,10.33
2018-07-06T22:00:38.572Z,11.47
2018-07-06T22:03:09.045Z,11.67
2018-07-06T22:05:38.872Z,10.33
2018-07-06T22:08:08.215Z,11.47
2018-07-06T22:10:37.933Z,9.80
2018-07-06T22:13:07.636Z,10.07
2018-07-06T22:15:42.692Z,11.87
2018-07-06T22:18:13.331Z,9.90
2018-07-06T22:20:43.240Z,10.87
2018-07-06T22:23:12.413Z,11.67
2018-07-06T22:25:41.716Z,10.13
2018-07-06T22:28:11.027Z,8.87
2018-07-06T22:30:40.514Z,19.27
2018-07-06T22:33:09.547Z,11.07
2018-07-06T22:35:38.604Z,8.80
2018-07-06T22:38:07.660Z,11.03
2018-07-06T22:40:36.744Z,11.40
2018-07-06T22:43:05.997Z,10.90
2018-07-06T22:45:35.207Z,8.77
2018-07-06T22:48:04.398Z,10.23
2018-07-06T22:50:33.464Z,10.80
2018-07-06T22:53:02.463Z,10.33
2018-07-06T22:55:31.527Z,9.60
2018-07-06T22:58:00.577Z,9.77
2018-07-06T23:00:29.653Z,8.60
2018-07-06T23:03:04.173Z,12.83
2018-07-06T23:05:33.316Z,9.20
2018-07-06T23:08:02.286Z,14.70
2018-07-06T23:10:31.339Z,11.73
2018-07-06T23:13:00.684Z,12.53
2018-07-06T23:15:29.724Z,13.30
2018-07-06T23:17:58.759Z,13.33
2018-07-06T23:20:27.800Z,16.53
2018-07-06T23:22:58.847Z,11.13
2018-07-06T23:25:28.009Z,19.13
2018-07-06T23:27:57.105Z,15.03
2018-07-06T23:30:26.635Z,17.47
2018-07-06T23:32:56.668Z,21.47
2018-07-06T23:35:25.732Z,13.13
2018-07-06T23:37:54.940Z,15.73
2018-07-06T23:40:24.013Z,14.40
2018-07-06T23:42:53.097Z,13.10
2018-07-06T23:45:22.583Z,12.03
2018-07-06T23:47:51.653Z,13.07
2018-07-06T23:50:21.347Z,16.83
2018-07-06T23:52:50.084Z,18.00
2018-07-06T23:55:19.330Z,12.20
2018-07-06T23:57:48.744Z,12.40
